RUNWAY INFORMATION
Runway Length Width Elevation Displaced
Threshold
Heading | Runway Length Width Elevation Displaced
Threshold
Heading
12 7385 ft 148 ft 12 ft 0 ft 135 | 30 7385 ft 148 ft 13 ft 0 ft 315

 AIRPORT FREQUENCIES
Type ATIS Name ATIS Frequency 112.7 MHZ
Type CTAF Name CTAF Frequency 118.1 MHZ
Type FSS Name MELBOURNE Frequency 125.55 MHZ
Type TWR Name TWR Frequency 118.1 MHZ

 AIRPORT NEAR NAVIGATION AIDS
Type VOR-DME Name Hobart Frequency 112700 KHZ
Type NDB Name Hobart Frequency 362 KHZ
Type NDB Name Tea Tree Frequency 374 KHZ

 METAR AND TAF INFORMATION
METAR FOR YMHB
ADDS - METARS form results

(0819 UTC 23 January 2022)
Data provider http://aviationweather.gov/metar/data/
 
METAR text: YMHB 230800Z 15012KT 9999 FEW025 BKN300 24/15 Q1015
Conditions at: YMHB (HOBART/TASMANIA , AU) observed 0800 UTC 23 January 2022
Temperature: 24.0°C (75°F)
Dewpoint: 15.0°C (59°F) [RH = 57%]
Pressure (altimeter): 29.97 inches Hg (1015.0 mb)
Winds: from the SSE (150 degrees) at 14 MPH (12 knots; 6.2 m/s)
Visibility: 6 or more miles (10+ km)
Ceiling: 30000 feet AGL
Clouds: few clouds at 2500 feet AGL
broken clouds at 30000 feet AGL
Weather: no significant weather observed at this time

METAR text: YMHB 230730Z 15013KT 9999 FEW030 SCT300 24/15 Q1015 RF00.0/000.0
Conditions at: YMHB (HOBART/TASMANIA , AU) observed 0730 UTC 23 January 2022
Temperature: 24.0°C (75°F)
Dewpoint: 15.0°C (59°F) [RH = 57%]
Pressure (altimeter): 29.97 inches Hg (1015.0 mb)
Winds: from the SSE (150 degrees) at 15 MPH (13 knots; 6.7 m/s)
Visibility: 6 or more miles (10+ km)
Ceiling: at least 12,000 feet AGL
Clouds: few clouds at 3000 feet AGL
scattered clouds at 30000 feet AGL
Weather: no significant weather observed at this time

Forecast for: YMHB (HOBART/TASMANIA , AU)
Text: TAF YMHB 230512Z 2306/2406 15014KT CAVOK
Forecast period: 0600 to 1300 UTC 23 January 2022
Forecast type: FROM: standard forecast or significant change
Winds: from the SSE (150 degrees) at 16 MPH (14 knots; 7.2 m/s)
Visibility: 6 or more miles (10+ km)
Ceiling: unknown
Clouds: missing
Weather: NSW  (no significant weather)
Text: BECMG 2313/2315 34005KT 9999 SCT010
Forecast period: 1300 UTC 23 January 2022 to 0000 UTC 24 January 2022
Forecast type: BECOMING: Conditions expected to become as follows by 1500 UTC 23 January 2022
Winds: from the NNW (340 degrees) at 6 MPH (5 knots; 2.6 m/s)
Visibility: 6 or more miles (10+ km)
Ceiling: at least 12,000 feet AGL
Clouds: scattered clouds at 1000 feet AGL
Weather: NSW  (no significant weather)
Text: FM240000 16005KT 9999 FEW010
Forecast period: 0000 to 0600 UTC 24 January 2022
Forecast type: FROM: standard forecast or significant change
Winds: from the SSE (160 degrees) at 6 MPH (5 knots; 2.6 m/s)
Visibility: 6 or more miles (10+ km)
Ceiling: at least 12,000 feet AGL
Clouds: few clouds at 1000 feet AGL
Weather: no significant weather forecast for this period



© 2013 - 2022, FlightSimLog.org - Powered by Virtual Airlines Manager